Time;durP1;ratioP1;P1;durP2;ratioP2;P2;SDS_P1;SDS_P2;PMS_P1;PMS_P2;Temp;Humidity;BMP_temperature;BMP_pressure;BME280_temperature;BME280_humidity;BME280_pressure;Samples;Min_cycle;Max_cycle;Signal;HPM_P1;HPM_P2
2024/03/16 00:00:07;;;;;;;82.40;42.30;;;;;;;-2.03;100.00;141782.97;110233;1278;22787;-61
2024/03/16 00:02:53;;;;;;;73.60;41.40;;;;;;;-2.00;100.00;141790.42;110250;1278;22105;-64
2024/03/16 00:05:39;;;;;;;68.80;38.00;;;;;;;-1.98;100.00;141795.64;110206;1278;22090;-64
2024/03/16 00:08:26;;;;;;;66.50;37.10;;;;;;;-1.98;100.00;141793.91;110225;1278;22119;-64
2024/03/16 00:11:12;;;;;;;61.70;36.30;;;;;;;-2.05;100.00;141779.27;110214;1278;22145;-62
2024/03/16 00:14:00;;;;;;;76.30;39.00;;;;;;;-2.15;100.00;141754.20;110222;1278;22099;-67
2024/03/16 00:16:46;;;;;;;69.10;39.50;;;;;;;-2.33;100.00;141708.80;110248;1278;22852;-63
2024/03/16 00:19:32;;;;;;;63.60;37.40;;;;;;;-2.47;100.00;141676.08;110230;1278;22102;-67
2024/03/16 00:22:18;;;;;;;75.60;41.90;;;;;;;-2.57;100.00;141651.50;110232;1278;22798;-67
2024/03/16 00:25:06;;;;;;;75.10;41.90;;;;;;;-2.69;100.00;141621.50;110230;1278;22199;-62
2024/03/16 00:27:53;;;;;;;69.60;40.10;;;;;;;-2.77;100.00;141601.91;110236;1278;22117;-59
2024/03/16 00:30:39;;;;;;;65.40;38.20;;;;;;;-2.86;100.00;141582.08;110219;1278;22872;-62
2024/03/16 00:33:25;;;;;;;71.20;39.50;;;;;;;-2.90;100.00;141570.92;110235;1278;22124;-64
2024/03/16 00:36:12;;;;;;;71.70;40.10;;;;;;;-2.95;100.00;141559.77;110199;1278;22161;-64
2024/03/16 00:38:58;;;;;;;68.60;38.50;;;;;;;-3.06;100.00;141533.98;110209;1278;22076;-62
2024/03/16 00:41:45;;;;;;;65.40;34.80;;;;;;;-3.18;100.00;141503.73;110213;1278;22119;-64
2024/03/16 00:44:32;;;;;;;75.30;37.50;;;;;;;-3.30;100.00;141475.73;110206;1278;22109;-65
2024/03/16 00:47:18;;;;;;;68.80;34.90;;;;;;;-3.37;100.00;141457.38;110236;1278;22210;-66
2024/03/16 00:50:05;;;;;;;63.60;36.00;;;;;;;-3.40;100.00;141451.19;110245;1278;22085;-64
2024/03/16 00:52:51;;;;;;;69.70;36.60;;;;;;;-3.37;100.00;141458.88;110235;1278;22599;-64
2024/03/16 00:55:37;;;;;;;73.20;35.20;;;;;;;-3.26;100.00;141484.91;110216;1278;22878;-63
2024/03/16 00:58:24;;;;;;;66.70;34.90;;;;;;;-3.24;100.00;141488.13;110212;1278;22102;-64
2024/03/16 01:01:10;;;;;;;67.40;34.60;;;;;;;-3.24;100.00;141488.13;110229;1278;22124;-65
2024/03/16 01:03:58;;;;;;;63.80;32.60;;;;;;;-3.21;100.00;141497.05;110231;1278;22107;-63
2024/03/16 01:06:44;;;;;;;61.10;31.10;;;;;;;-3.18;100.00;141503.50;110221;1278;22123;-59
2024/03/16 01:09:30;;;;;;;53.60;27.70;;;;;;;-3.13;100.00;141516.88;110213;1278;22805;-65
2024/03/16 01:12:17;;;;;;;56.50;28.50;;;;;;;-3.14;100.00;141512.66;110227;1278;22097;-65
2024/03/16 01:15:03;;;;;;;50.70;29.30;;;;;;;-3.15;100.00;141511.42;110253;1278;22254;-63
2024/03/16 01:17:49;;;;;;;58.40;30.00;;;;;;;-3.08;100.00;141528.53;110230;1278;22112;-65
2024/03/16 01:20:36;;;;;;;55.10;28.20;;;;;;;-2.99;100.00;141550.84;110227;1278;22777;-63
2024/03/16 01:23:22;;;;;;;57.40;28.80;;;;;;;-3.00;100.00;141546.86;110223;1278;22092;-64
2024/03/16 01:26:09;;;;;;;55.20;27.80;;;;;;;-3.04;100.00;141536.22;110225;1278;22072;-61
2024/03/16 01:28:59;;;;;;;56.70;28.70;;;;;;;-3.04;100.00;141537.97;110228;1278;22089;-61
2024/03/16 01:31:46;;;;;;;54.00;27.90;;;;;;;-2.99;100.00;141549.59;110213;1278;22983;-64
2024/03/16 01:34:33;;;;;;;55.00;30.00;;;;;;;-3.03;100.00;141539.19;110215;1278;22116;-63
2024/03/16 01:37:19;;;;;;;63.00;29.60;;;;;;;-3.07;100.00;141531.48;110645;1261;22132;-64
2024/03/16 01:40:06;;;;;;;58.10;29.00;;;;;;;-3.14;100.00;141514.39;110207;1278;22109;-64
2024/03/16 01:42:53;;;;;;;59.80;29.40;;;;;;;-3.20;100.00;141499.28;110209;1278;22121;-64
2024/03/16 01:45:40;;;;;;;56.30;28.80;;;;;;;-3.13;100.00;141514.66;110232;1278;22105;-63
2024/03/16 01:48:27;;;;;;;54.30;29.10;;;;;;;-3.04;100.00;141536.70;110210;1278;22120;-62
2024/03/16 01:51:13;;;;;;;58.30;28.30;;;;;;;-3.02;100.00;141543.39;110206;1278;22127;-67
2024/03/16 01:53:59;;;;;;;57.10;29.50;;;;;;;-3.06;100.00;141532.77;110221;1278;22109;-64
2024/03/16 01:56:45;;;;;;;59.80;30.10;;;;;;;-3.02;100.00;141542.91;110223;1278;22853;-63
2024/03/16 01:59:31;;;;;;;58.60;29.90;;;;;;;-3.02;100.00;141542.17;110202;1278;22109;-63
2024/03/16 02:02:36;;;;;;;65.20;29.40;;;;;;;-3.08;100.00;141528.52;110210;1278;22094;-61
2024/03/16 02:05:22;;;;;;;65.90;34.60;;;;;;;-3.11;100.00;141519.34;110196;1278;22092;-67
2024/03/16 02:08:08;;;;;;;63.50;31.90;;;;;;;-3.15;100.00;141509.94;110228;1278;22112;-62
2024/03/16 02:10:56;;;;;;;68.20;34.50;;;;;;;-3.17;100.00;141504.73;110207;1278;22133;-64
2024/03/16 02:13:43;;;;;;;61.10;32.60;;;;;;;-3.15;100.00;141510.70;110549;1261;22132;-65
2024/03/16 02:16:29;;;;;;;64.80;31.90;;;;;;;-3.17;100.00;141505.72;110197;1278;22787;-65
2024/03/16 02:19:15;;;;;;;67.30;33.50;;;;;;;-3.19;100.00;141501.27;110229;1278;22134;-64
2024/03/16 02:22:03;;;;;;;59.40;32.50;;;;;;;-3.21;100.00;141495.06;110217;1278;22888;-62
2024/03/16 02:24:50;;;;;;;56.90;30.70;;;;;;;-3.19;100.00;141500.27;110215;1278;22116;-66
2024/03/16 02:27:37;;;;;;;62.70;32.40;;;;;;;-3.15;100.00;141510.67;110225;1278;22115;-66
2024/03/16 02:30:24;;;;;;;61.80;33.30;;;;;;;-3.14;100.00;141511.91;110224;1278;22836;-62
2024/03/16 02:33:10;;;;;;;63.40;34.60;;;;;;;-3.25;100.00;141487.88;110212;1278;22190;-60
2024/03/16 02:35:57;;;;;;;62.80;34.00;;;;;;;-3.20;100.00;141497.80;110212;1278;22090;-63
2024/03/16 02:38:43;;;;;;;65.20;32.70;;;;;;;-3.10;100.00;141524.08;110197;1278;22766;-63
2024/03/16 02:41:30;;;;;;;66.10;33.70;;;;;;;-2.96;100.00;141556.78;110202;1278;22115;-60
2024/03/16 02:44:17;;;;;;;67.70;33.00;;;;;;;-2.84;100.00;141587.78;110203;1278;22108;-62
2024/03/16 02:47:04;;;;;;;65.20;34.20;;;;;;;-2.71;100.00;141617.30;110224;1278;22111;-61
2024/03/16 02:49:51;;;;;;;69.90;35.60;;;;;;;-2.64;100.00;141633.66;110209;1278;22326;-63
2024/03/16 02:52:37;;;;;;;66.40;34.60;;;;;;;-2.57;100.00;141650.28;110205;1278;22111;-64
2024/03/16 02:55:23;;;;;;;62.70;32.70;;;;;;;-2.53;100.00;141661.19;110237;1278;22812;-65
2024/03/16 02:58:10;;;;;;;74.00;33.40;;;;;;;-2.50;100.00;141668.13;110221;1278;22224;-62
2024/03/16 03:00:56;;;;;;;66.80;33.80;;;;;;;-2.46;100.00;141678.80;110195;1278;22176;-67
2024/03/16 03:03:42;;;;;;;62.90;32.10;;;;;;;-2.44;100.00;141683.77;110212;1278;22111;-62
2024/03/16 03:06:29;;;;;;;69.90;35.50;;;;;;;-2.46;100.00;141677.55;110223;1278;22778;-68
2024/03/16 03:09:15;;;;;;;66.20;33.10;;;;;;;-2.45;100.00;141681.03;110199;1278;22077;-64
2024/03/16 03:12:01;;;;;;;66.20;34.60;;;;;;;-2.41;100.00;141690.20;110200;1278;22835;-63
2024/03/16 03:14:47;;;;;;;69.50;37.10;;;;;;;-2.41;100.00;141691.94;110209;1278;22108;-66
2024/03/16 03:17:33;;;;;;;70.50;36.10;;;;;;;-2.41;100.00;141691.45;110221;1278;22138;-63
2024/03/16 03:20:22;;;;;;;67.80;32.80;;;;;;;-2.37;100.00;141700.13;110226;1278;22070;-65
2024/03/16 03:23:09;;;;;;;68.70;35.90;;;;;;;-2.35;100.00;141703.11;110179;1278;22797;-63
2024/03/16 03:25:56;;;;;;;73.00;38.10;;;;;;;-2.32;100.00;141711.28;110197;1278;22899;-65
2024/03/16 03:28:42;;;;;;;78.60;39.00;;;;;;;-2.31;100.00;141713.28;110262;1278;22104;-60
2024/03/16 03:31:28;;;;;;;74.90;38.00;;;;;;;-2.32;100.00;141712.28;110198;1278;22109;-62
2024/03/16 03:34:15;;;;;;;69.30;34.20;;;;;;;-2.35;100.00;141703.59;110231;1278;22219;-64
2024/03/16 03:37:02;;;;;;;67.00;34.50;;;;;;;-2.38;100.00;141697.91;110224;1278;22794;-60
2024/03/16 03:39:52;;;;;;;72.20;34.10;;;;;;;-2.37;100.00;141698.63;110208;1278;22082;-63
2024/03/16 03:42:45;;;;;;;71.50;35.50;;;;;;;-2.34;100.00;141705.56;110222;1278;22104;-61
2024/03/16 03:48:40;;;;;;;76.90;33.80;;;;;;;-2.34;100.00;141706.31;110216;1278;22123;-66
2024/03/16 03:51:26;;;;;;;66.40;33.40;;;;;;;-2.36;100.00;141702.86;110209;1278;22116;-62
2024/03/16 03:54:12;;;;;;;68.10;31.60;;;;;;;-2.35;100.00;141703.34;110191;1278;22120;-67
2024/03/16 03:56:59;;;;;;;63.80;32.60;;;;;;;-2.34;100.00;141706.81;110543;1271;22132;-65
2024/03/16 03:59:45;;;;;;;62.60;32.70;;;;;;;-2.32;100.00;141710.55;110206;1278;22125;-62
2024/03/16 04:02:32;;;;;;;73.90;34.10;;;;;;;-2.32;100.00;141711.28;110171;1278;22128;-64
2024/03/16 04:05:18;;;;;;;65.70;33.80;;;;;;;-2.41;100.00;141691.67;110227;1278;22322;-63
2024/03/16 04:08:07;;;;;;;69.20;34.10;;;;;;;-2.55;100.00;141657.22;110212;1278;22806;-63
2024/03/16 04:10:53;;;;;;;63.70;33.20;;;;;;;-2.67;100.00;141626.70;110197;1278;22127;-64
2024/03/16 04:13:39;;;;;;;63.70;30.70;;;;;;;-2.69;100.00;141621.27;110191;1278;22114;-64
2024/03/16 04:16:25;;;;;;;65.90;31.30;;;;;;;-2.76;100.00;141604.16;110180;1278;22125;-62
2024/03/16 04:19:12;;;;;;;60.90;30.10;;;;;;;-2.86;100.00;141581.58;110190;1278;22127;-63
2024/03/16 04:21:58;;;;;;;61.40;31.70;;;;;;;-2.87;100.00;141578.88;110192;1278;22885;-64
2024/03/16 04:24:44;;;;;;;62.50;32.50;;;;;;;-2.83;100.00;141588.78;110202;1278;22192;-63
2024/03/16 04:27:30;;;;;;;64.70;33.20;;;;;;;-2.75;100.00;141608.36;110204;1278;22120;-61
2024/03/16 04:30:17;;;;;;;65.70;32.00;;;;;;;-2.71;100.00;141618.28;110185;1278;22144;-65
2024/03/16 04:33:03;;;;;;;53.80;28.20;;;;;;;-2.64;100.00;141635.38;110201;1278;22120;-64
2024/03/16 04:35:49;;;;;;;55.40;29.80;;;;;;;-2.55;100.00;141655.47;110190;1278;22146;-59
2024/03/16 04:38:35;;;;;;;57.10;29.70;;;;;;;-2.47;100.00;141675.56;110190;1278;22261;-61
2024/03/16 04:41:24;;;;;;;51.70;30.20;;;;;;;-2.41;100.00;141690.70;110191;1278;22142;-64
2024/03/16 04:44:10;;;;;;;53.30;30.00;;;;;;;-2.34;100.00;141707.33;110208;1278;22071;-65
2024/03/16 04:46:57;;;;;;;58.90;29.60;;;;;;;-2.28;100.00;141720.45;110201;1278;22177;-65
2024/03/16 04:49:43;;;;;;;56.90;30.20;;;;;;;-2.23;100.00;141734.34;110173;1278;22110;-62
2024/03/16 04:52:29;;;;;;;53.90;30.50;;;;;;;-2.18;100.00;141747.00;110166;1278;22133;-64
2024/03/16 04:55:15;;;;;;;58.70;29.50;;;;;;;-2.11;100.00;141762.64;110209;1278;22762;-62
2024/03/16 04:58:04;;;;;;;62.90;32.80;;;;;;;-2.03;100.00;141782.23;110189;1278;22202;-64
2024/03/16 05:00:51;;;;;;;58.40;30.00;;;;;;;-1.96;100.00;141800.11;110202;1278;22825;-66
2024/03/16 05:03:38;;;;;;;54.40;29.80;;;;;;;-1.88;100.00;141819.22;110197;1278;22135;-63
2024/03/16 05:06:24;;;;;;;50.60;28.30;;;;;;;-1.88;100.00;141818.95;110205;1278;22828;-65
2024/03/16 05:09:10;;;;;;;53.30;29.00;;;;;;;-1.92;100.00;141808.78;110179;1278;22101;-65
2024/03/16 05:11:56;;;;;;;51.20;28.00;;;;;;;-1.98;100.00;141794.39;110258;1260;22833;-63
2024/03/16 05:14:42;;;;;;;53.40;25.50;;;;;;;-2.10;100.00;141765.13;110198;1278;22096;-65
2024/03/16 05:17:28;;;;;;;49.40;26.60;;;;;;;-2.31;100.00;141714.75;110195;1278;22201;-65
2024/03/16 05:20:15;;;;;;;56.60;29.90;;;;;;;-2.52;100.00;141663.16;110191;1278;22132;-67
2024/03/16 05:23:02;;;;;;;48.50;27.90;;;;;;;-2.63;100.00;141637.13;110188;1278;22125;-63
2024/03/16 05:25:48;;;;;;;48.50;26.20;;;;;;;-2.69;100.00;141622.47;110166;1278;22768;-60
2024/03/16 05:28:34;;;;;;;50.90;24.50;;;;;;;-2.78;100.00;141599.44;110192;1278;22116;-61
2024/03/16 05:31:21;;;;;;;54.60;25.50;;;;;;;-2.79;100.00;141596.70;110170;1278;22095;-66
2024/03/16 05:34:08;;;;;;;60.90;25.20;;;;;;;-2.67;100.00;141628.47;110187;1278;22135;-64
2024/03/16 05:36:55;;;;;;;54.80;27.60;;;;;;;-2.49;100.00;141671.34;110207;1278;22374;-66
2024/03/16 05:39:41;;;;;;;54.30;25.90;;;;;;;-2.33;100.00;141709.80;110181;1278;22207;-62
2024/03/16 05:42:28;;;;;;;50.70;24.10;;;;;;;-2.26;100.00;141727.17;110175;1278;22102;-67
2024/03/16 05:45:14;;;;;;;54.60;25.70;;;;;;;-2.24;100.00;141730.91;110199;1278;22088;-63
2024/03/16 05:48:01;;;;;;;53.30;24.80;;;;;;;-2.22;100.00;141736.33;110200;1278;22123;-63
2024/03/16 05:50:49;;;;;;;56.80;26.20;;;;;;;-2.13;100.00;141756.92;110211;1278;22126;-67
2024/03/16 05:53:35;;;;;;;52.50;26.30;;;;;;;-2.07;100.00;141772.80;110195;1278;22756;-61
2024/03/16 05:56:21;;;;;;;52.90;24.10;;;;;;;-2.09;100.00;141768.09;110193;1278;22123;-69
2024/03/16 05:59:11;;;;;;;51.60;22.40;;;;;;;-2.02;100.00;141785.22;110168;1278;22124;-65
2024/03/16 06:01:57;;;;;;;51.20;24.80;;;;;;;-2.01;100.00;141788.42;110181;1278;22862;-61
2024/03/16 06:04:44;;;;;;;56.90;24.90;;;;;;;-2.11;100.00;141762.14;110185;1278;22832;-68
2024/03/16 06:07:30;;;;;;;55.50;24.70;;;;;;;-2.08;100.00;141770.09;110177;1278;22096;-65
2024/03/16 06:10:17;;;;;;;52.70;23.90;;;;;;;-1.99;100.00;141793.16;110179;1278;22566;-62
2024/03/16 06:13:04;;;;;;;51.30;22.30;;;;;;;-1.87;100.00;141820.69;110544;1256;22133;-64
2024/03/16 06:15:51;;;;;;;53.10;24.50;;;;;;;-1.78;100.00;141844.53;110203;1278;22112;-64
2024/03/16 06:18:40;;;;;;;47.20;21.30;;;;;;;-1.66;100.00;141871.09;110187;1278;22737;-63
2024/03/16 06:21:27;;;;;;;53.60;24.10;;;;;;;-1.67;100.00;141870.84;110219;1278;22133;-63
2024/03/16 06:24:14;;;;;;;50.30;25.10;;;;;;;-1.66;100.00;141872.83;110197;1278;22202;-66
2024/03/16 06:27:05;;;;;;;50.30;24.10;;;;;;;-1.61;100.00;141885.00;110303;1278;22108;-68
2024/03/16 06:29:55;;;;;;;48.50;23.40;;;;;;;-1.53;100.00;141904.36;110206;1278;22109;-65
2024/03/16 06:32:55;;;;;;;55.10;23.60;;;;;;;-1.44;100.00;141924.47;110176;1278;22122;-67
2024/03/16 06:35:45;;;;;;;61.60;26.30;;;;;;;-1.39;100.00;141936.13;110188;1278;22137;-64
2024/03/16 06:38:32;;;;;;;49.60;22.00;;;;;;;-1.39;100.00;141937.88;110295;1278;22130;-65
2024/03/16 06:41:18;;;;;;;37.90;21.20;;;;;;;-1.38;100.00;141941.09;110201;1278;22188;-66
2024/03/16 06:44:04;;;;;;;36.10;18.70;;;;;;;-1.38;100.00;141939.34;110179;1278;22123;-64
2024/03/16 06:46:51;;;;;;;34.40;18.40;;;;;;;-1.54;100.00;141900.38;110648;1270;22106;-68
2024/03/16 06:49:38;;;;;;;25.80;15.60;;;;;;;-1.82;100.00;141833.09;110199;1278;22118;-67
2024/03/16 06:52:24;;;;;;;31.10;17.70;;;;;;;-1.97;100.00;141796.89;110555;1257;22154;-65
2024/03/16 06:55:13;;;;;;;34.20;18.80;;;;;;;-2.01;100.00;141787.70;110564;1260;22148;-66
2024/03/16 06:58:00;;;;;;;29.70;18.50;;;;;;;-1.84;100.00;141829.39;110192;1278;22138;-65
2024/03/16 07:00:48;;;;;;;32.70;18.60;;;;;;;-1.64;100.00;141876.05;110295;1278;22246;-68
2024/03/16 07:03:34;;;;;;;30.00;19.30;;;;;;;-1.46;100.00;141921.22;110178;1278;22110;-67
2024/03/16 07:06:21;;;;;;;28.00;18.00;;;;;;;-1.39;100.00;141937.84;110191;1278;22745;-65
2024/03/16 07:09:08;;;;;;;26.00;17.20;;;;;;;-1.39;100.00;141938.34;110172;1278;22122;-62
2024/03/16 07:11:54;;;;;;;24.60;16.10;;;;;;;-1.24;100.00;141974.86;110306;1278;22129;-66
2024/03/16 07:14:41;;;;;;;26.80;16.80;;;;;;;-1.31;100.00;141956.50;110175;1278;22120;-65
2024/03/16 07:17:30;;;;;;;21.70;14.40;;;;;;;-1.39;100.00;141936.63;110180;1278;22117;-65
2024/03/16 07:20:17;;;;;;;20.30;14.10;;;;;;;-1.57;100.00;141894.17;110184;1278;22111;-63
2024/03/16 07:23:04;;;;;;;20.40;14.10;;;;;;;-1.86;100.00;141824.17;110176;1278;22117;-63
2024/03/16 07:25:50;;;;;;;19.70;13.60;;;;;;;-1.97;100.00;141797.39;110175;1278;22126;-65
2024/03/16 07:28:36;;;;;;;18.90;12.10;;;;;;;-1.82;100.00;141833.34;110171;1278;22118;-64
2024/03/16 07:31:22;;;;;;;20.30;13.50;;;;;;;-1.70;100.00;141862.66;110204;1278;22123;-63
2024/03/16 07:34:09;;;;;;;20.10;13.00;;;;;;;-1.58;100.00;141892.45;110174;1278;22302;-66
2024/03/16 07:36:57;;;;;;;20.00;12.40;;;;;;;-1.31;100.00;141955.98;110191;1278;22121;-70
2024/03/16 07:39:43;;;;;;;18.30;12.00;;;;;;;-0.95;100.00;142043.91;110163;1278;22099;-61
2024/03/16 07:42:30;;;;;;;18.40;11.30;;;;;;;-0.31;100.00;142199.92;110198;1278;22819;-64
2024/03/16 07:45:17;;;;;;;16.70;11.00;;;;;;;0.39;100.00;142370.22;110192;1278;22128;-64
2024/03/16 07:48:05;;;;;;;15.60;10.60;;;;;;;0.90;100.00;142493.09;110189;1278;22813;-62
2024/03/16 07:50:59;;;;;;;13.50;9.40;;;;;;;0.95;100.00;142504.80;110132;1278;22100;-64
2024/03/16 07:53:45;;;;;;;12.40;8.20;;;;;;;1.07;100.00;142535.16;110169;1278;22362;-64
2024/03/16 07:56:32;;;;;;;12.60;7.90;;;;;;;0.91;100.00;142496.06;110214;1278;22127;-67
2024/03/16 07:59:19;;;;;;;11.70;7.70;;;;;;;0.48;100.00;142391.34;110188;1278;22134;-66
2024/03/16 08:02:06;;;;;;;13.60;8.20;;;;;;;0.29;100.00;142344.84;110625;1257;22864;-65
2024/03/16 08:04:53;;;;;;;9.10;6.70;;;;;;;0.65;100.00;142432.88;110572;1257;22790;-67
2024/03/16 08:07:40;;;;;;;8.90;6.00;;;;;;;1.03;100.00;142525.19;110556;1260;22099;-67
2024/03/16 08:10:26;;;;;;;9.60;6.50;;;;;;;1.09;100.00;142539.63;110525;1257;22146;-70
2024/03/16 08:13:12;;;;;;;10.70;7.20;;;;;;;0.76;100.00;142458.77;110192;1278;22110;-62
2024/03/16 08:15:59;;;;;;;11.80;7.20;;;;;;;0.45;100.00;142384.41;110618;1261;22138;-64
2024/03/16 08:18:46;;;;;;;11.10;6.80;;;;;;;0.29;100.00;142345.59;110658;1255;22322;-66
2024/03/16 08:21:32;;;;;;;12.50;7.40;;;;;;;0.41;100.00;142374.95;110634;1264;22126;-60
2024/03/16 08:24:21;;;;;;;14.60;8.00;;;;;;;0.44;100.00;142380.41;110207;1278;22111;-68
2024/03/16 08:27:07;;;;;;;9.90;5.90;;;;;;;0.49;100.00;142393.34;110178;1278;22129;-63
2024/03/16 08:29:55;;;;;;;11.60;7.90;;;;;;;0.71;100.00;142447.81;110582;1270;22190;-64
2024/03/16 08:32:41;;;;;;;9.30;6.40;;;;;;;0.70;100.00;142444.83;110195;1278;23086;-67
2024/03/16 08:35:28;;;;;;;9.90;6.90;;;;;;;0.77;100.00;142461.72;110575;1261;22146;-69
2024/03/16 08:38:14;;;;;;;13.50;8.70;;;;;;;0.64;100.00;142429.91;110177;1278;22864;-66
2024/03/16 08:41:00;;;;;;;11.70;7.60;;;;;;;0.46;100.00;142385.91;110179;1278;22122;-66
2024/03/16 08:43:51;;;;;;;11.30;6.90;;;;;;;0.33;100.00;142355.05;110590;1257;22111;-63
2024/03/16 08:46:37;;;;;;;14.90;8.70;;;;;;;0.25;100.00;142335.41;110612;1256;22144;-64
2024/03/16 08:49:23;;;;;;;10.90;7.50;;;;;;;0.39;100.00;142370.22;110204;1278;22739;-67
2024/03/16 08:52:10;;;;;;;13.10;8.30;;;;;;;0.58;100.00;142415.72;110653;1260;22321;-62
2024/03/16 08:54:56;;;;;;;14.20;8.90;;;;;;;0.60;100.00;142421.95;110195;1278;22778;-68
2024/03/16 08:57:42;;;;;;;14.70;8.90;;;;;;;0.82;100.00;142473.69;110184;1278;22854;-67
2024/03/16 09:00:29;;;;;;;14.40;8.10;;;;;;;0.92;100.00;142497.58;110580;1256;22145;-69
2024/03/16 09:03:16;;;;;;;12.20;8.30;;;;;;;1.03;100.00;142524.69;110199;1278;22829;-65
2024/03/16 09:06:03;;;;;;;15.90;10.70;;;;;;;0.97;100.00;142510.77;110571;1256;22116;-67
2024/03/16 09:08:50;;;;;;;15.70;9.30;;;;;;;0.85;100.00;142480.64;110190;1278;22893;-69
2024/03/16 09:11:39;;;;;;;15.60;9.90;;;;;;;0.78;100.00;142462.97;110197;1278;22135;-66
2024/03/16 09:14:26;;;;;;;17.40;11.00;;;;;;;0.76;100.00;142459.50;110585;1261;22131;-69
2024/03/16 09:17:13;;;;;;;16.90;10.90;;;;;;;0.86;100.00;142482.39;110567;1260;22845;-64
2024/03/16 09:19:59;;;;;;;14.20;9.60;;;;;;;1.01;100.00;142520.70;110148;1278;22143;-66
2024/03/16 09:22:52;;;;;;;18.20;10.80;;;;;;;0.96;100.00;142509.03;110181;1278;22124;-67
2024/03/16 09:25:38;;;;;;;25.00;12.10;;;;;;;0.90;100.00;142493.09;110173;1278;22100;-68
2024/03/16 09:28:25;;;;;;;19.40;11.90;;;;;;;0.88;100.00;142487.38;110205;1278;22120;-65
2024/03/16 09:31:11;;;;;;;19.60;12.80;;;;;;;0.86;100.00;142483.88;110196;1278;22143;-68
2024/03/16 09:33:59;;;;;;;20.50;12.80;;;;;;;0.82;100.00;142474.69;110158;1278;22230;-66
2024/03/16 09:36:45;;;;;;;21.40;12.60;;;;;;;0.83;100.00;142475.92;110579;1268;22861;-61
2024/03/16 09:39:31;;;;;;;19.70;12.70;;;;;;;0.90;100.00;142492.09;110189;1278;22145;-67
2024/03/16 09:42:17;;;;;;;21.50;13.20;;;;;;;0.94;100.00;142503.55;110679;1261;22328;-65
2024/03/16 09:45:18;;;;;;;20.20;12.40;;;;;;;0.99;100.00;142516.47;110640;1261;22125;-67
2024/03/16 09:48:06;;;;;;;21.00;13.20;;;;;;;1.06;100.00;142532.16;110175;1278;22333;-64
2024/03/16 09:50:55;;;;;;;17.70;10.80;;;;;;;1.06;100.00;142533.91;110169;1278;22807;-65
2024/03/16 09:53:41;;;;;;;20.00;11.80;;;;;;;1.02;100.00;142522.45;110666;1256;22322;-64
2024/03/16 09:56:30;;;;;;;21.70;11.70;;;;;;;0.99;100.00;142515.50;110631;1261;22212;-66
2024/03/16 09:59:17;;;;;;;17.90;11.10;;;;;;;0.99;100.00;142515.25;110622;1257;22124;-64
2024/03/16 10:02:19;;;;;;;17.80;11.30;;;;;;;0.94;100.00;142504.28;110169;1278;22125;-68
